sensor_id;sensor_type;location;lat;lon;timestamp;P1;durP1;ratioP1;P2;durP2;ratioP2
36829;SDS011;22767;47.328;9.640;2022-08-24T00:00:06;2.90;;;1.70;;
36829;SDS011;22767;47.328;9.640;2022-08-24T00:02:53;1.50;;;1.30;;
36829;SDS011;22767;47.328;9.640;2022-08-24T00:05:39;2.47;;;1.45;;
36829;SDS011;22767;47.328;9.640;2022-08-24T00:08:26;2.70;;;1.63;;
36829;SDS011;22767;47.328;9.640;2022-08-24T00:11:13;5.05;;;1.90;;
36829;SDS011;22767;47.328;9.640;2022-08-24T00:13:59;2.25;;;1.77;;
36829;SDS011;22767;47.328;9.640;2022-08-24T00:16:46;1.70;;;1.60;;
36829;SDS011;22767;47.328;9.640;2022-08-24T00:19:32;4.45;;;1.60;;
36829;SDS011;22767;47.328;9.640;2022-08-24T00:22:19;4.65;;;1.95;;
36829;SDS011;22767;47.328;9.640;2022-08-24T00:25:07;2.25;;;1.70;;
36829;SDS011;22767;47.328;9.640;2022-08-24T00:27:54;3.08;;;1.88;;
36829;SDS011;22767;47.328;9.640;2022-08-24T00:30:40;2.33;;;1.80;;
36829;SDS011;22767;47.328;9.640;2022-08-24T00:33:27;2.35;;;1.65;;
36829;SDS011;22767;47.328;9.640;2022-08-24T00:36:14;4.07;;;2.08;;
36829;SDS011;22767;47.328;9.640;2022-08-24T00:39:02;4.38;;;1.85;;
36829;SDS011;22767;47.328;9.640;2022-08-24T00:41:49;3.55;;;1.83;;
36829;SDS011;22767;47.328;9.640;2022-08-24T00:44:36;2.47;;;1.92;;
36829;SDS011;22767;47.328;9.640;2022-08-24T00:47:23;6.35;;;2.15;;
36829;SDS011;22767;47.328;9.640;2022-08-24T00:50:13;4.30;;;1.98;;
36829;SDS011;22767;47.328;9.640;2022-08-24T00:53:00;2.47;;;1.90;;
36829;SDS011;22767;47.328;9.640;2022-08-24T00:55:50;2.40;;;2.00;;
36829;SDS011;22767;47.328;9.640;2022-08-24T00:58:39;2.13;;;1.80;;
36829;SDS011;22767;47.328;9.640;2022-08-24T01:01:27;3.38;;;1.90;;
36829;SDS011;22767;47.328;9.640;2022-08-24T01:04:16;2.40;;;2.05;;
36829;SDS011;22767;47.328;9.640;2022-08-24T01:07:03;2.10;;;1.83;;
36829;SDS011;22767;47.328;9.640;2022-08-24T01:09:50;2.67;;;1.88;;
36829;SDS011;22767;47.328;9.640;2022-08-24T01:12:38;2.20;;;2.00;;
36829;SDS011;22767;47.328;9.640;2022-08-24T01:15:27;2.72;;;1.77;;
36829;SDS011;22767;47.328;9.640;2022-08-24T01:18:15;3.15;;;2.10;;
36829;SDS011;22767;47.328;9.640;2022-08-24T01:21:23;2.10;;;1.90;;
36829;SDS011;22767;47.328;9.640;2022-08-24T01:24:11;2.78;;;1.60;;
36829;SDS011;22767;47.328;9.640;2022-08-24T01:26:58;2.50;;;1.80;;
36829;SDS011;22767;47.328;9.640;2022-08-24T01:29:45;2.00;;;1.85;;
36829;SDS011;22767;47.328;9.640;2022-08-24T01:32:32;2.35;;;1.73;;
36829;SDS011;22767;47.328;9.640;2022-08-24T01:35:18;4.20;;;1.88;;
36829;SDS011;22767;47.328;9.640;2022-08-24T01:38:06;3.45;;;1.85;;
36829;SDS011;22767;47.328;9.640;2022-08-24T01:40:56;3.60;;;2.00;;
36829;SDS011;22767;47.328;9.640;2022-08-24T01:43:43;3.05;;;2.00;;
36829;SDS011;22767;47.328;9.640;2022-08-24T01:46:29;3.63;;;2.15;;
36829;SDS011;22767;47.328;9.640;2022-08-24T01:49:16;2.97;;;2.00;;
36829;SDS011;22767;47.328;9.640;2022-08-24T01:52:03;6.32;;;2.50;;
36829;SDS011;22767;47.328;9.640;2022-08-24T01:54:51;1.95;;;1.77;;
36829;SDS011;22767;47.328;9.640;2022-08-24T01:57:37;2.53;;;2.05;;
36829;SDS011;22767;47.328;9.640;2022-08-24T02:00:24;3.05;;;1.73;;
36829;SDS011;22767;47.328;9.640;2022-08-24T02:03:11;3.15;;;1.95;;
36829;SDS011;22767;47.328;9.640;2022-08-24T02:05:58;3.83;;;2.28;;
36829;SDS011;22767;47.328;9.640;2022-08-24T02:08:44;3.70;;;2.35;;
36829;SDS011;22767;47.328;9.640;2022-08-24T02:11:31;2.10;;;1.90;;
36829;SDS011;22767;47.328;9.640;2022-08-24T02:14:18;3.78;;;2.00;;
36829;SDS011;22767;47.328;9.640;2022-08-24T02:17:05;2.70;;;1.98;;
36829;SDS011;22767;47.328;9.640;2022-08-24T02:19:52;4.03;;;2.08;;
36829;SDS011;22767;47.328;9.640;2022-08-24T02:22:38;5.25;;;2.00;;
36829;SDS011;22767;47.328;9.640;2022-08-24T02:25:25;2.72;;;1.90;;
36829;SDS011;22767;47.328;9.640;2022-08-24T02:28:14;6.57;;;2.33;;
36829;SDS011;22767;47.328;9.640;2022-08-24T02:31:01;3.80;;;1.92;;
36829;SDS011;22767;47.328;9.640;2022-08-24T02:33:50;2.75;;;1.90;;
36829;SDS011;22767;47.328;9.640;2022-08-24T02:36:37;4.93;;;2.15;;
36829;SDS011;22767;47.328;9.640;2022-08-24T02:39:23;3.00;;;2.08;;
36829;SDS011;22767;47.328;9.640;2022-08-24T02:42:09;3.00;;;1.83;;
36829;SDS011;22767;47.328;9.640;2022-08-24T02:44:56;2.15;;;1.88;;
36829;SDS011;22767;47.328;9.640;2022-08-24T02:47:42;3.05;;;2.20;;
36829;SDS011;22767;47.328;9.640;2022-08-24T02:50:29;6.32;;;2.30;;
36829;SDS011;22767;47.328;9.640;2022-08-24T02:53:16;4.25;;;2.40;;
36829;SDS011;22767;47.328;9.640;2022-08-24T02:56:03;3.53;;;2.38;;
36829;SDS011;22767;47.328;9.640;2022-08-24T02:58:51;3.85;;;1.83;;
36829;SDS011;22767;47.328;9.640;2022-08-24T03:01:38;3.33;;;2.28;;
36829;SDS011;22767;47.328;9.640;2022-08-24T03:04:24;4.90;;;2.47;;
36829;SDS011;22767;47.328;9.640;2022-08-24T03:07:11;2.65;;;2.10;;
36829;SDS011;22767;47.328;9.640;2022-08-24T03:09:57;3.38;;;2.33;;
36829;SDS011;22767;47.328;9.640;2022-08-24T03:12:43;2.63;;;2.42;;
36829;SDS011;22767;47.328;9.640;2022-08-24T03:15:30;3.22;;;2.13;;
36829;SDS011;22767;47.328;9.640;2022-08-24T03:18:17;3.30;;;1.92;;
36829;SDS011;22767;47.328;9.640;2022-08-24T03:21:03;3.33;;;2.28;;
36829;SDS011;22767;47.328;9.640;2022-08-24T03:23:50;3.70;;;2.28;;
36829;SDS011;22767;47.328;9.640;2022-08-24T03:26:36;4.32;;;2.33;;
36829;SDS011;22767;47.328;9.640;2022-08-24T03:29:23;3.70;;;2.17;;
36829;SDS011;22767;47.328;9.640;2022-08-24T03:32:09;1.92;;;1.83;;
36829;SDS011;22767;47.328;9.640;2022-08-24T03:34:56;2.20;;;2.00;;
36829;SDS011;22767;47.328;9.640;2022-08-24T03:37:42;2.33;;;2.13;;
36829;SDS011;22767;47.328;9.640;2022-08-24T03:40:29;3.60;;;2.28;;
36829;SDS011;22767;47.328;9.640;2022-08-24T03:43:17;2.00;;;1.80;;
36829;SDS011;22767;47.328;9.640;2022-08-24T03:46:24;2.40;;;2.20;;
36829;SDS011;22767;47.328;9.640;2022-08-24T03:49:12;4.28;;;2.25;;
36829;SDS011;22767;47.328;9.640;2022-08-24T03:51:59;2.92;;;2.30;;
36829;SDS011;22767;47.328;9.640;2022-08-24T03:54:45;2.97;;;2.47;;
36829;SDS011;22767;47.328;9.640;2022-08-24T03:57:32;4.28;;;2.40;;
36829;SDS011;22767;47.328;9.640;2022-08-24T04:00:19;4.20;;;2.20;;
36829;SDS011;22767;47.328;9.640;2022-08-24T04:03:05;2.30;;;2.10;;
36829;SDS011;22767;47.328;9.640;2022-08-24T04:05:52;2.58;;;2.20;;
36829;SDS011;22767;47.328;9.640;2022-08-24T04:08:39;4.43;;;2.33;;
36829;SDS011;22767;47.328;9.640;2022-08-24T04:11:27;4.35;;;2.45;;
36829;SDS011;22767;47.328;9.640;2022-08-24T04:14:14;2.55;;;2.10;;
36829;SDS011;22767;47.328;9.640;2022-08-24T04:17:01;4.60;;;1.80;;
36829;SDS011;22767;47.328;9.640;2022-08-24T04:19:48;3.00;;;1.85;;
36829;SDS011;22767;47.328;9.640;2022-08-24T04:22:44;2.55;;;1.60;;
36829;SDS011;22767;47.328;9.640;2022-08-24T04:25:30;2.00;;;1.85;;
36829;SDS011;22767;47.328;9.640;2022-08-24T04:28:18;2.97;;;2.20;;
36829;SDS011;22767;47.328;9.640;2022-08-24T04:31:05;5.93;;;2.10;;
36829;SDS011;22767;47.328;9.640;2022-08-24T04:33:51;3.03;;;2.35;;
36829;SDS011;22767;47.328;9.640;2022-08-24T04:36:38;3.95;;;2.50;;
36829;SDS011;22767;47.328;9.640;2022-08-24T04:39:25;4.28;;;3.10;;
36829;SDS011;22767;47.328;9.640;2022-08-24T04:42:11;3.53;;;2.50;;
36829;SDS011;22767;47.328;9.640;2022-08-24T04:44:57;4.82;;;2.30;;
36829;SDS011;22767;47.328;9.640;2022-08-24T04:47:44;3.28;;;2.47;;
36829;SDS011;22767;47.328;9.640;2022-08-24T04:50:34;3.00;;;2.40;;
36829;SDS011;22767;47.328;9.640;2022-08-24T04:53:20;3.97;;;2.40;;
36829;SDS011;22767;47.328;9.640;2022-08-24T04:56:14;3.90;;;3.00;;
36829;SDS011;22767;47.328;9.640;2022-08-24T04:59:02;8.20;;;2.60;;
36829;SDS011;22767;47.328;9.640;2022-08-24T05:01:49;7.72;;;2.58;;
36829;SDS011;22767;47.328;9.640;2022-08-24T05:04:36;5.28;;;2.70;;
36829;SDS011;22767;47.328;9.640;2022-08-24T05:07:23;3.28;;;2.50;;
36829;SDS011;22767;47.328;9.640;2022-08-24T05:10:10;3.75;;;3.28;;
36829;SDS011;22767;47.328;9.640;2022-08-24T05:12:56;3.33;;;2.90;;
36829;SDS011;22767;47.328;9.640;2022-08-24T05:15:43;5.35;;;3.42;;
36829;SDS011;22767;47.328;9.640;2022-08-24T05:18:30;7.03;;;3.03;;
36829;SDS011;22767;47.328;9.640;2022-08-24T05:21:19;4.40;;;3.00;;
36829;SDS011;22767;47.328;9.640;2022-08-24T05:24:06;6.03;;;4.03;;
36829;SDS011;22767;47.328;9.640;2022-08-24T05:26:52;5.18;;;3.00;;
36829;SDS011;22767;47.328;9.640;2022-08-24T05:29:39;4.72;;;3.10;;
36829;SDS011;22767;47.328;9.640;2022-08-24T05:32:25;5.30;;;3.10;;
36829;SDS011;22767;47.328;9.640;2022-08-24T05:35:11;8.75;;;3.70;;
36829;SDS011;22767;47.328;9.640;2022-08-24T05:37:58;5.07;;;3.50;;
36829;SDS011;22767;47.328;9.640;2022-08-24T05:40:44;3.78;;;2.90;;
36829;SDS011;22767;47.328;9.640;2022-08-24T05:43:31;3.70;;;3.03;;
36829;SDS011;22767;47.328;9.640;2022-08-24T05:46:18;5.80;;;3.28;;
36829;SDS011;22767;47.328;9.640;2022-08-24T05:49:05;3.55;;;3.10;;
36829;SDS011;22767;47.328;9.640;2022-08-24T05:51:52;3.65;;;3.30;;
36829;SDS011;22767;47.328;9.640;2022-08-24T05:54:39;5.35;;;3.45;;
36829;SDS011;22767;47.328;9.640;2022-08-24T05:57:29;5.30;;;3.28;;
36829;SDS011;22767;47.328;9.640;2022-08-24T06:00:16;5.18;;;3.15;;
36829;SDS011;22767;47.328;9.640;2022-08-24T06:03:02;3.63;;;3.20;;
36829;SDS011;22767;47.328;9.640;2022-08-24T06:05:49;5.93;;;3.88;;
36829;SDS011;22767;47.328;9.640;2022-08-24T06:08:38;5.10;;;3.55;;
36829;SDS011;22767;47.328;9.640;2022-08-24T06:14:12;5.95;;;3.38;;
36829;SDS011;22767;47.328;9.640;2022-08-24T06:16:59;6.00;;;3.45;;
36829;SDS011;22767;47.328;9.640;2022-08-24T06:19:46;3.58;;;2.78;;
36829;SDS011;22767;47.328;9.640;2022-08-24T06:22:32;5.97;;;3.83;;
36829;SDS011;22767;47.328;9.640;2022-08-24T06:25:19;3.78;;;3.35;;
36829;SDS011;22767;47.328;9.640;2022-08-24T06:28:24;6.78;;;3.75;;
36829;SDS011;22767;47.328;9.640;2022-08-24T06:31:11;4.32;;;3.08;;
36829;SDS011;22767;47.328;9.640;2022-08-24T06:33:57;3.83;;;3.10;;
36829;SDS011;22767;47.328;9.640;2022-08-24T06:36:44;5.25;;;3.22;;
36829;SDS011;22767;47.328;9.640;2022-08-24T06:39:31;3.05;;;2.75;;
36829;SDS011;22767;47.328;9.640;2022-08-24T06:42:18;4.78;;;2.85;;
36829;SDS011;22767;47.328;9.640;2022-08-24T06:45:04;3.50;;;2.60;;
36829;SDS011;22767;47.328;9.640;2022-08-24T06:47:51;4.03;;;2.70;;
36829;SDS011;22767;47.328;9.640;2022-08-24T06:50:38;2.78;;;2.45;;
36829;SDS011;22767;47.328;9.640;2022-08-24T06:53:24;3.00;;;2.38;;
36829;SDS011;22767;47.328;9.640;2022-08-24T06:56:11;2.72;;;2.13;;
36829;SDS011;22767;47.328;9.640;2022-08-24T06:58:58;2.78;;;2.15;;
36829;SDS011;22767;47.328;9.640;2022-08-24T07:01:47;5.47;;;2.88;;
36829;SDS011;22767;47.328;9.640;2022-08-24T07:04:34;4.70;;;2.47;;
36829;SDS011;22767;47.328;9.640;2022-08-24T07:07:20;2.30;;;2.08;;
36829;SDS011;22767;47.328;9.640;2022-08-24T07:10:08;5.53;;;2.50;;
36829;SDS011;22767;47.328;9.640;2022-08-24T07:12:55;4.25;;;2.30;;
36829;SDS011;22767;47.328;9.640;2022-08-24T07:15:41;5.85;;;2.20;;
36829;SDS011;22767;47.328;9.640;2022-08-24T07:18:28;4.03;;;2.33;;
36829;SDS011;22767;47.328;9.640;2022-08-24T07:21:14;4.60;;;2.47;;
36829;SDS011;22767;47.328;9.640;2022-08-24T07:24:03;6.18;;;2.53;;
36829;SDS011;22767;47.328;9.640;2022-08-24T07:26:51;3.50;;;2.17;;
36829;SDS011;22767;47.328;9.640;2022-08-24T07:29:38;3.97;;;2.30;;
36829;SDS011;22767;47.328;9.640;2022-08-24T07:32:24;2.50;;;2.30;;
36829;SDS011;22767;47.328;9.640;2022-08-24T07:35:13;5.00;;;2.75;;
36829;SDS011;22767;47.328;9.640;2022-08-24T07:37:59;4.40;;;2.50;;
36829;SDS011;22767;47.328;9.640;2022-08-24T07:40:46;3.83;;;2.03;;
36829;SDS011;22767;47.328;9.640;2022-08-24T07:43:32;4.38;;;2.20;;
36829;SDS011;22767;47.328;9.640;2022-08-24T07:46:19;3.08;;;2.35;;
36829;SDS011;22767;47.328;9.640;2022-08-24T07:49:06;3.65;;;2.05;;
36829;SDS011;22767;47.328;9.640;2022-08-24T07:51:52;2.88;;;2.28;;
36829;SDS011;22767;47.328;9.640;2022-08-24T07:54:38;5.85;;;2.35;;
36829;SDS011;22767;47.328;9.640;2022-08-24T07:57:25;4.05;;;2.08;;
36829;SDS011;22767;47.328;9.640;2022-08-24T08:00:13;5.45;;;2.30;;
36829;SDS011;22767;47.328;9.640;2022-08-24T08:02:59;2.38;;;1.70;;
36829;SDS011;22767;47.328;9.640;2022-08-24T08:05:47;4.68;;;2.30;;
36829;SDS011;22767;47.328;9.640;2022-08-24T08:08:34;3.05;;;1.95;;
36829;SDS011;22767;47.328;9.640;2022-08-24T08:11:21;3.25;;;1.80;;
36829;SDS011;22767;47.328;9.640;2022-08-24T08:14:07;2.92;;;1.88;;
36829;SDS011;22767;47.328;9.640;2022-08-24T08:16:54;3.58;;;2.20;;
36829;SDS011;22767;47.328;9.640;2022-08-24T08:19:41;1.80;;;1.65;;
36829;SDS011;22767;47.328;9.640;2022-08-24T08:22:28;2.28;;;1.73;;
36829;SDS011;22767;47.328;9.640;2022-08-24T08:25:33;4.35;;;1.70;;
36829;SDS011;22767;47.328;9.640;2022-08-24T08:28:23;5.82;;;2.20;;
36829;SDS011;22767;47.328;9.640;2022-08-24T08:31:10;2.10;;;1.63;;
36829;SDS011;22767;47.328;9.640;2022-08-24T08:33:57;3.03;;;1.80;;
36829;SDS011;22767;47.328;9.640;2022-08-24T08:36:44;3.15;;;1.63;;
36829;SDS011;22767;47.328;9.640;2022-08-24T08:39:30;3.00;;;1.80;;
36829;SDS011;22767;47.328;9.640;2022-08-24T08:48:16;3.10;;;1.88;;
36829;SDS011;22767;47.328;9.640;2022-08-24T08:54:14;4.18;;;1.70;;
36829;SDS011;22767;47.328;9.640;2022-08-24T08:57:20;2.38;;;1.75;;
36829;SDS011;22767;47.328;9.640;2022-08-24T09:00:10;2.78;;;1.67;;
36829;SDS011;22767;47.328;9.640;2022-08-24T09:09:06;3.95;;;1.90;;
36829;SDS011;22767;47.328;9.640;2022-08-24T09:12:02;2.83;;;1.67;;
36829;SDS011;22767;47.328;9.640;2022-08-24T09:26:26;3.22;;;1.88;;
36829;SDS011;22767;47.328;9.640;2022-08-24T09:29:17;3.65;;;1.60;;
36829;SDS011;22767;47.328;9.640;2022-08-24T09:35:02;7.40;;;2.30;;
36829;SDS011;22767;47.328;9.640;2022-08-24T10:01:46;4.05;;;1.50;;
36829;SDS011;22767;47.328;9.640;2022-08-24T10:04:40;2.88;;;1.50;;
36829;SDS011;22767;47.328;9.640;2022-08-24T10:16:48;2.97;;;1.77;;
36829;SDS011;22767;47.328;9.640;2022-08-24T10:22:35;3.35;;;1.77;;
36829;SDS011;22767;47.328;9.640;2022-08-24T10:31:30;2.95;;;2.40;;
36829;SDS011;22767;47.328;9.640;2022-08-24T10:34:30;2.50;;;2.30;;
36829;SDS011;22767;47.328;9.640;2022-08-24T10:43:22;3.22;;;2.50;;
36829;SDS011;22767;47.328;9.640;2022-08-24T10:55:20;2.63;;;2.05;;
36829;SDS011;22767;47.328;9.640;2022-08-24T11:01:24;5.28;;;2.25;;
36829;SDS011;22767;47.328;9.640;2022-08-24T11:04:12;2.63;;;2.00;;
36829;SDS011;22767;47.328;9.640;2022-08-24T11:07:15;3.80;;;2.03;;
36829;SDS011;22767;47.328;9.640;2022-08-24T11:10:06;4.57;;;2.00;;
36829;SDS011;22767;47.328;9.640;2022-08-24T11:12:53;2.20;;;2.00;;
36829;SDS011;22767;47.328;9.640;2022-08-24T11:15:45;4.18;;;2.17;;
36829;SDS011;22767;47.328;9.640;2022-08-24T11:21:34;3.47;;;1.98;;
36829;SDS011;22767;47.328;9.640;2022-08-24T11:24:41;2.53;;;1.90;;
36829;SDS011;22767;47.328;9.640;2022-08-24T11:27:42;2.58;;;1.98;;
36829;SDS011;22767;47.328;9.640;2022-08-24T11:30:30;4.95;;;2.22;;
36829;SDS011;22767;47.328;9.640;2022-08-24T11:33:31;4.93;;;2.20;;
36829;SDS011;22767;47.328;9.640;2022-08-24T11:36:19;2.20;;;1.73;;
36829;SDS011;22767;47.328;9.640;2022-08-24T11:39:19;5.72;;;1.88;;
36829;SDS011;22767;47.328;9.640;2022-08-24T11:42:12;2.38;;;1.83;;
36829;SDS011;22767;47.328;9.640;2022-08-24T12:05:25;2.30;;;1.48;;
36829;SDS011;22767;47.328;9.640;2022-08-24T12:11:48;2.40;;;1.50;;
36829;SDS011;22767;47.328;9.640;2022-08-24T12:17:32;2.65;;;1.60;;
36829;SDS011;22767;47.328;9.640;2022-08-24T12:26:24;1.55;;;1.42;;
36829;SDS011;22767;47.328;9.640;2022-08-24T12:32:00;2.35;;;1.73;;
36829;SDS011;22767;47.328;9.640;2022-08-24T12:35:00;2.63;;;1.70;;
36829;SDS011;22767;47.328;9.640;2022-08-24T12:40:54;1.80;;;1.48;;
36829;SDS011;22767;47.328;9.640;2022-08-24T12:43:44;4.30;;;1.60;;
36829;SDS011;22767;47.328;9.640;2022-08-24T12:46:33;5.15;;;1.38;;
36829;SDS011;22767;47.328;9.640;2022-08-24T12:49:25;3.40;;;1.58;;
36829;SDS011;22767;47.328;9.640;2022-08-24T12:58:05;1.50;;;1.40;;
36829;SDS011;22767;47.328;9.640;2022-08-24T13:00:53;3.50;;;1.23;;
36829;SDS011;22767;47.328;9.640;2022-08-24T13:03:41;3.63;;;1.55;;
36829;SDS011;22767;47.328;9.640;2022-08-24T13:06:35;3.05;;;1.20;;
36829;SDS011;22767;47.328;9.640;2022-08-24T13:20:59;2.00;;;1.00;;
36829;SDS011;22767;47.328;9.640;2022-08-24T13:23:45;1.70;;;1.30;;
36829;SDS011;22767;47.328;9.640;2022-08-24T13:26:32;1.33;;;1.10;;
36829;SDS011;22767;47.328;9.640;2022-08-24T13:29:20;1.30;;;1.20;;
36829;SDS011;22767;47.328;9.640;2022-08-24T13:32:07;1.15;;;1.05;;
36829;SDS011;22767;47.328;9.640;2022-08-24T13:34:57;3.65;;;1.30;;
36829;SDS011;22767;47.328;9.640;2022-08-24T13:37:44;1.27;;;0.90;;
36829;SDS011;22767;47.328;9.640;2022-08-24T13:40:52;3.45;;;1.00;;
36829;SDS011;22767;47.328;9.640;2022-08-24T13:53:04;1.48;;;1.05;;
36829;SDS011;22767;47.328;9.640;2022-08-24T13:55:54;2.72;;;0.85;;
36829;SDS011;22767;47.328;9.640;2022-08-24T13:58:45;2.33;;;1.30;;
36829;SDS011;22767;47.328;9.640;2022-08-24T14:01:36;0.80;;;0.80;;
36829;SDS011;22767;47.328;9.640;2022-08-24T14:09:59;1.05;;;0.95;;
36829;SDS011;22767;47.328;9.640;2022-08-24T14:15:58;2.25;;;0.90;;
36829;SDS011;22767;47.328;9.640;2022-08-24T14:22:12;1.42;;;1.02;;
36829;SDS011;22767;47.328;9.640;2022-08-24T14:28:20;1.08;;;0.90;;
36829;SDS011;22767;47.328;9.640;2022-08-24T14:37:09;2.03;;;0.90;;
36829;SDS011;22767;47.328;9.640;2022-08-24T14:43:18;1.00;;;0.90;;
36829;SDS011;22767;47.328;9.640;2022-08-24T14:49:01;1.17;;;0.90;;
36829;SDS011;22767;47.328;9.640;2022-08-24T15:06:47;2.65;;;0.95;;
36829;SDS011;22767;47.328;9.640;2022-08-24T15:09:33;4.47;;;1.00;;
36829;SDS011;22767;47.328;9.640;2022-08-24T15:12:28;1.90;;;0.90;;
36829;SDS011;22767;47.328;9.640;2022-08-24T15:15:28;3.53;;;1.20;;
36829;SDS011;22767;47.328;9.640;2022-08-24T15:27:18;0.80;;;0.80;;
36829;SDS011;22767;47.328;9.640;2022-08-24T15:30:16;2.83;;;1.13;;
36829;SDS011;22767;47.328;9.640;2022-08-24T15:33:09;1.77;;;0.90;;
36829;SDS011;22767;47.328;9.640;2022-08-24T15:36:11;1.20;;;1.10;;
36829;SDS011;22767;47.328;9.640;2022-08-24T15:38:59;1.33;;;1.05;;
36829;SDS011;22767;47.328;9.640;2022-08-24T15:41:46;1.15;;;1.00;;
36829;SDS011;22767;47.328;9.640;2022-08-24T15:44:34;1.77;;;1.08;;
36829;SDS011;22767;47.328;9.640;2022-08-24T15:50:18;3.33;;;1.00;;
36829;SDS011;22767;47.328;9.640;2022-08-24T15:53:06;3.42;;;1.13;;
36829;SDS011;22767;47.328;9.640;2022-08-24T15:55:53;1.40;;;1.02;;
36829;SDS011;22767;47.328;9.640;2022-08-24T15:58:39;1.15;;;1.05;;
36829;SDS011;22767;47.328;9.640;2022-08-24T16:01:26;2.08;;;1.10;;
36829;SDS011;22767;47.328;9.640;2022-08-24T16:04:49;2.22;;;1.27;;
36829;SDS011;22767;47.328;9.640;2022-08-24T16:13:30;1.08;;;0.98;;
36829;SDS011;22767;47.328;9.640;2022-08-24T16:16:17;1.38;;;1.20;;
36829;SDS011;22767;47.328;9.640;2022-08-24T16:19:22;1.73;;;1.17;;
36829;SDS011;22767;47.328;9.640;2022-08-24T16:22:09;1.30;;;1.20;;
36829;SDS011;22767;47.328;9.640;2022-08-24T16:28:08;2.85;;;1.10;;
36829;SDS011;22767;47.328;9.640;2022-08-24T16:30:57;1.38;;;1.20;;
36829;SDS011;22767;47.328;9.640;2022-08-24T16:33:45;2.90;;;1.33;;
36829;SDS011;22767;47.328;9.640;2022-08-24T16:36:32;1.00;;;0.80;;
36829;SDS011;22767;47.328;9.640;2022-08-24T16:39:18;1.90;;;1.08;;
36829;SDS011;22767;47.328;9.640;2022-08-24T16:42:06;1.23;;;1.10;;
36829;SDS011;22767;47.328;9.640;2022-08-24T16:44:55;2.05;;;1.30;;
36829;SDS011;22767;47.328;9.640;2022-08-24T16:47:43;1.20;;;1.10;;
36829;SDS011;22767;47.328;9.640;2022-08-24T16:50:31;2.38;;;1.33;;
36829;SDS011;22767;47.328;9.640;2022-08-24T16:53:17;2.55;;;1.30;;
36829;SDS011;22767;47.328;9.640;2022-08-24T16:56:04;1.15;;;1.05;;
36829;SDS011;22767;47.328;9.640;2022-08-24T16:58:53;1.45;;;1.20;;
36829;SDS011;22767;47.328;9.640;2022-08-24T17:01:39;1.10;;;1.00;;
36829;SDS011;22767;47.328;9.640;2022-08-24T17:04:25;1.42;;;1.33;;
36829;SDS011;22767;47.328;9.640;2022-08-24T17:07:13;2.67;;;1.33;;
36829;SDS011;22767;47.328;9.640;2022-08-24T17:10:01;1.42;;;1.30;;
36829;SDS011;22767;47.328;9.640;2022-08-24T17:12:48;1.92;;;1.30;;
36829;SDS011;22767;47.328;9.640;2022-08-24T17:15:35;1.75;;;1.23;;
36829;SDS011;22767;47.328;9.640;2022-08-24T17:18:21;6.47;;;1.35;;
36829;SDS011;22767;47.328;9.640;2022-08-24T17:21:08;1.83;;;1.20;;
36829;SDS011;22767;47.328;9.640;2022-08-24T17:23:54;1.40;;;1.30;;
36829;SDS011;22767;47.328;9.640;2022-08-24T17:26:41;1.45;;;1.33;;
36829;SDS011;22767;47.328;9.640;2022-08-24T17:29:27;2.70;;;1.35;;
36829;SDS011;22767;47.328;9.640;2022-08-24T17:32:14;3.33;;;1.33;;
36829;SDS011;22767;47.328;9.640;2022-08-24T17:35:01;2.95;;;1.50;;
36829;SDS011;22767;47.328;9.640;2022-08-24T17:37:48;2.05;;;1.58;;
36829;SDS011;22767;47.328;9.640;2022-08-24T17:40:36;2.22;;;1.30;;
36829;SDS011;22767;47.328;9.640;2022-08-24T17:43:22;1.77;;;1.27;;
36829;SDS011;22767;47.328;9.640;2022-08-24T17:46:09;4.80;;;1.98;;
36829;SDS011;22767;47.328;9.640;2022-08-24T17:48:56;2.50;;;1.60;;
36829;SDS011;22767;47.328;9.640;2022-08-24T17:51:43;2.25;;;1.40;;
36829;SDS011;22767;47.328;9.640;2022-08-24T17:54:30;3.95;;;1.58;;
36829;SDS011;22767;47.328;9.640;2022-08-24T17:57:16;7.60;;;2.08;;
36829;SDS011;22767;47.328;9.640;2022-08-24T18:00:07;3.85;;;1.70;;
36829;SDS011;22767;47.328;9.640;2022-08-24T18:02:54;3.23;;;2.20;;
36829;SDS011;22767;47.328;9.640;2022-08-24T18:05:41;4.05;;;2.40;;
36829;SDS011;22767;47.328;9.640;2022-08-24T18:08:27;2.50;;;2.00;;
36829;SDS011;22767;47.328;9.640;2022-08-24T18:11:14;4.25;;;1.95;;
36829;SDS011;22767;47.328;9.640;2022-08-24T18:14:00;3.22;;;2.33;;
36829;SDS011;22767;47.328;9.640;2022-08-24T18:16:47;3.25;;;2.03;;
36829;SDS011;22767;47.328;9.640;2022-08-24T18:19:34;4.03;;;2.22;;
36829;SDS011;22767;47.328;9.640;2022-08-24T18:22:20;4.18;;;2.30;;
36829;SDS011;22767;47.328;9.640;2022-08-24T18:25:07;2.88;;;2.22;;
36829;SDS011;22767;47.328;9.640;2022-08-24T18:27:53;4.45;;;1.77;;
36829;SDS011;22767;47.328;9.640;2022-08-24T18:30:41;5.57;;;2.33;;
36829;SDS011;22767;47.328;9.640;2022-08-24T18:33:28;2.45;;;2.00;;
36829;SDS011;22767;47.328;9.640;2022-08-24T18:36:14;2.60;;;2.40;;
36829;SDS011;22767;47.328;9.640;2022-08-24T18:39:01;4.63;;;3.80;;
36829;SDS011;22767;47.328;9.640;2022-08-24T18:41:48;3.15;;;2.25;;
36829;SDS011;22767;47.328;9.640;2022-08-24T18:44:34;3.00;;;2.38;;
36829;SDS011;22767;47.328;9.640;2022-08-24T18:47:23;3.15;;;2.05;;
36829;SDS011;22767;47.328;9.640;2022-08-24T18:50:09;4.68;;;2.15;;
36829;SDS011;22767;47.328;9.640;2022-08-24T18:52:56;5.15;;;3.17;;
36829;SDS011;22767;47.328;9.640;2022-08-24T18:55:43;4.40;;;3.42;;
36829;SDS011;22767;47.328;9.640;2022-08-24T18:58:31;7.20;;;2.30;;
36829;SDS011;22767;47.328;9.640;2022-08-24T19:01:18;3.47;;;2.28;;
36829;SDS011;22767;47.328;9.640;2022-08-24T19:04:05;2.95;;;2.50;;
36829;SDS011;22767;47.328;9.640;2022-08-24T19:06:51;5.40;;;2.90;;
36829;SDS011;22767;47.328;9.640;2022-08-24T19:09:37;4.30;;;2.60;;
36829;SDS011;22767;47.328;9.640;2022-08-24T19:12:24;3.08;;;2.22;;
36829;SDS011;22767;47.328;9.640;2022-08-24T19:15:12;4.55;;;2.42;;
36829;SDS011;22767;47.328;9.640;2022-08-24T19:17:58;3.25;;;2.63;;
36829;SDS011;22767;47.328;9.640;2022-08-24T19:20:46;5.00;;;2.65;;
36829;SDS011;22767;47.328;9.640;2022-08-24T19:23:36;3.58;;;2.80;;
36829;SDS011;22767;47.328;9.640;2022-08-24T19:26:23;7.03;;;3.38;;
36829;SDS011;22767;47.328;9.640;2022-08-24T19:29:10;6.55;;;3.20;;
36829;SDS011;22767;47.328;9.640;2022-08-24T19:31:56;4.10;;;2.63;;
36829;SDS011;22767;47.328;9.640;2022-08-24T19:34:42;2.00;;;1.60;;
36829;SDS011;22767;47.328;9.640;2022-08-24T19:37:29;6.15;;;3.13;;
36829;SDS011;22767;47.328;9.640;2022-08-24T19:40:16;7.28;;;3.28;;
36829;SDS011;22767;47.328;9.640;2022-08-24T19:43:03;3.38;;;2.25;;
36829;SDS011;22767;47.328;9.640;2022-08-24T19:45:50;3.25;;;2.45;;
36829;SDS011;22767;47.328;9.640;2022-08-24T19:48:54;4.70;;;2.28;;
36829;SDS011;22767;47.328;9.640;2022-08-24T19:51:41;3.95;;;2.30;;
36829;SDS011;22767;47.328;9.640;2022-08-24T19:54:35;4.55;;;3.20;;
36829;SDS011;22767;47.328;9.640;2022-08-24T19:57:29;2.75;;;2.50;;
36829;SDS011;22767;47.328;9.640;2022-08-24T20:00:22;3.17;;;2.92;;
36829;SDS011;22767;47.328;9.640;2022-08-24T20:03:09;5.25;;;3.00;;
36829;SDS011;22767;47.328;9.640;2022-08-24T20:05:56;3.97;;;2.63;;
36829;SDS011;22767;47.328;9.640;2022-08-24T20:08:42;2.75;;;2.35;;
36829;SDS011;22767;47.328;9.640;2022-08-24T20:11:29;3.13;;;2.20;;
36829;SDS011;22767;47.328;9.640;2022-08-24T20:14:16;2.50;;;2.30;;
36829;SDS011;22767;47.328;9.640;2022-08-24T20:17:03;3.17;;;2.45;;
36829;SDS011;22767;47.328;9.640;2022-08-24T20:19:49;4.25;;;2.63;;
36829;SDS011;22767;47.328;9.640;2022-08-24T20:22:36;4.28;;;2.45;;
36829;SDS011;22767;47.328;9.640;2022-08-24T20:25:22;2.50;;;2.25;;
36829;SDS011;22767;47.328;9.640;2022-08-24T20:28:09;2.63;;;1.83;;
36829;SDS011;22767;47.328;9.640;2022-08-24T20:30:55;3.50;;;2.00;;
36829;SDS011;22767;47.328;9.640;2022-08-24T20:33:42;3.38;;;2.70;;
36829;SDS011;22767;47.328;9.640;2022-08-24T20:36:35;3.45;;;2.25;;
36829;SDS011;22767;47.328;9.640;2022-08-24T20:39:23;4.10;;;2.25;;